• Join FlightAware (Why Join?)
  • Login
  • US Flag 
03:18PM EDT


 

Airport Tracker/Info


-or-


 

Live Flight TrackerFlight Track Log ✈ VH-OIS ✈ 25-May-2013 ✈ YCOI - YPJT / JAD

Flight Track Log - Related Links

Times and Time Zones

All times are in EDT time to prevent confusion due to time zone crossing. See the VH-OIS flight status page for this flight to view local times or setup timezone preferences in your user account.

Time Position Orientation Groundspeed Altitude Reporting Facility
EDT Latitude Longitude Course Direction KTS MPH feet Rate Location/Type
11:39PM -32.2020 116.3030 329° Northwest 110 127 2,400  Level FlightAware
11:40PM -32.1890 116.2930 327° Northwest 114 131 2,400 -180 Level FlightAware
11:40PM -32.1820 116.2870 324° Northwest 117 135 2,300 -240 Descending FlightAware
11:41PM -32.1700 116.2650 303° West 127 146 2,200 -120 Descending FlightAware
11:41PM -32.1690 116.2440 273° West 121 139 2,200  Level FlightAware
11:41PM -32.1670 116.2280 278° West 122 140 2,200  Level FlightAware
11:42PM -32.1650 116.2170 282° West 125 144 2,200  Level FlightAware
11:42PM -32.1630 116.1980 277° West 120 138 2,200  Level FlightAware
11:43PM -32.1600 116.1810 282° West 125 144 2,200  Level FlightAware
11:43PM -32.1590 116.1710 277° West 121 139 2,200 120 Level FlightAware
11:43PM -32.1560 116.1520 281° West 120 138 2,300 60 Climbing FlightAware
11:44PM -32.1520 116.1360 286° West 123 142 2,300 -120 Level FlightAware
11:44PM -32.1480 116.1180 285° West 127 146 2,200 -360 Descending FlightAware
11:44PM -32.1480 116.1100 270° West 128 147 2,100  Descending FlightAware
11:45PM -32.1480 116.0860 270° West 124 143 2,200 60 Climbing FlightAware
11:45PM -32.1500 116.0720 260° West 127 146 2,200 -120 Level FlightAware
11:46PM -32.1530 116.0490 261° West 122 140 2,100 -420 Descending FlightAware
11:46PM -32.1550 116.0300 263° West 124 143 1,800 -720 Descending FlightAware
11:47PM -32.1560 116.0160 265° West 125 144 1,500 -600 Descending FlightAware
11:48PM -32.1590 115.9850 263° West 111 128 1,200 -240 Descending FlightAware
11:48PM -32.1610 115.9680 262° West 108 124 1,200 60 Level FlightAware
11:49PM -32.1610 115.9450 270° West 109 125 1,300 60 Climbing FlightAware
11:49PM -32.1580 115.9380 297° West 101 116 1,300 120 Level FlightAware
11:49PM -32.1460 115.9260 320° Northwest 105 121 1,400 120 Climbing FlightAware
11:50PM -32.1390 115.9180 316° Northwest 108 124 1,400 -120 Level FlightAware
11:50PM -32.1260 115.9060 322° Northwest 105 121 1,300  Descending FlightAware
11:51PM -32.1150 115.8960 322° Northwest 104 120 1,400 120 Climbing FlightAware
11:51PM -32.1100 115.8910 320° Northwest 104 120 1,400  Level FlightAware
11:51PM -32.0980 115.8790 320° Northwest 104 120 1,400 120 Level FlightAware
11:52PM -32.0920 115.8760 337° Northwest 102 117 1,500 -540 Climbing FlightAware
11:52PM -32.0810 115.8670 325° Northwest 100 115 1,000 -720 Descending FlightAware
11:53PM -32.0860 115.8570 239° Southwest 88 101 900 -360 Descending FlightAware
11:53PM -32.0940 115.8470 227° Southwest 79 91 700 -480 Descending FlightAware
11:54PM -32.1030 115.8500 164° South 76 87 500 -420 Descending FlightAware
11:54PM -32.1090 115.8530 157° South 70 81 400 -240 Descending FlightAware
11:54PM -32.1100 115.8570 106° East 70 81 400 -240 Level FlightAware
11:54PM -32.1070 115.8620 55° Northeast 67 77 300 -240 Descending FlightAware
11:54PM -32.1060 115.8650 69° East 59 68 300  Level FlightAware
11:55PM -32.1010 115.8730 54° Northeast 56 64 -540 Descending FlightAware
11:55PM -32.0980 115.8790 59° Northeast 56 64  Level FlightAware